METAR - Iceland

Last updated 28.06.2017 - at. 22:47

SIGMET for the last six hours

No SIGMET messages last 6 hours.

METAR from the last three hours

AerodromeTimeMessage
BIAR2017-06-28 22.00METAR BIAR 282200Z 32004KT 290V350 9999 SCT058 12/06 Q1011
BIAR2017-06-28 21.00METAR BIAR 282100Z 32004KT 290V350 9999 SCT059 12/06 Q1011
BIAR2017-06-28 20.00METAR BIAR 282000Z 34007KT 9999 SCT059 12/06 Q1011
BIEG2017-06-28 22.00METAR BIEG 282200Z 01006KT 9999 FEW010 SCT030 OVC070 10/08 Q1011
BIEG2017-06-28 21.00METAR BIEG 282100Z 01007KT 9999 FEW030 BKN070 10/08 Q1011
BIEG2017-06-28 20.00METAR BIEG 282000Z 36008KT 9999 FEW030 SCT060 10/07 Q1011
BIKF2017-06-28 22.30METAR BIKF 282230Z 24007KT 9999 FEW009 BKN020 10/07 Q1012
BIKF2017-06-28 22.00METAR BIKF 282200Z 24008KT 9999 FEW009 FEW015TCU BKN024 10/07 Q1012
BIKF2017-06-28 21.30METAR BIKF 282130Z 24009KT 9999 FEW009 FEW015TCU BKN025 10/08 Q1012
BIKF2017-06-28 21.00METAR BIKF 282100Z 23009KT 9999 FEW009 FEW015CB BKN025 10/08 Q1012
BIKF2017-06-28 20.30METAR BIKF 282030Z 22009KT 9999 FEW015CB BKN026 BKN075 11/09 Q1012
BIKF2017-06-28 20.00METAR BIKF 282000Z 23009KT 9999 FEW015CB SCT035TCU BKN075 11/08 Q1012
BIRK2017-06-28 22.00METAR BIRK 282200Z 28005KT 9999 FEW016 OVC026 10/07 Q1012
BIRK2017-06-28 21.00METAR BIRK 282100Z 29006KT 9999 -SHRA FEW010 BKN022 BKN030 11/08 Q1012
BIRK2017-06-28 20.00METAR BIRK 282000Z 30003KT 260V330 9999 -SHRA FEW015 BKN028 BKN049 10/08 Q1012


Other related web sites


This website is built with Eplica CMS